sensor_id;sensor_type;location;lat;lon;timestamp;P1;durP1;ratioP1;P2;durP2;ratioP2
757;SDS011;363;48.764;9.172;2022-09-23T00:01:21;5.73;;;5.23;;
757;SDS011;363;48.764;9.172;2022-09-23T00:03:47;6.70;;;5.90;;
757;SDS011;363;48.764;9.172;2022-09-23T00:06:16;7.45;;;5.65;;
757;SDS011;363;48.764;9.172;2022-09-23T00:08:43;6.70;;;6.00;;
757;SDS011;363;48.764;9.172;2022-09-23T00:11:10;7.23;;;5.73;;
757;SDS011;363;48.764;9.172;2022-09-23T00:13:38;6.72;;;6.10;;
757;SDS011;363;48.764;9.172;2022-09-23T00:16:05;6.53;;;5.88;;
757;SDS011;363;48.764;9.172;2022-09-23T00:18:32;6.80;;;6.10;;
757;SDS011;363;48.764;9.172;2022-09-23T00:21:04;6.30;;;5.70;;
757;SDS011;363;48.764;9.172;2022-09-23T00:23:34;6.30;;;5.75;;
757;SDS011;363;48.764;9.172;2022-09-23T00:26:01;5.90;;;5.40;;
757;SDS011;363;48.764;9.172;2022-09-23T00:28:29;7.47;;;5.57;;
757;SDS011;363;48.764;9.172;2022-09-23T00:30:55;6.13;;;5.63;;
757;SDS011;363;48.764;9.172;2022-09-23T00:33:20;9.37;;;6.87;;
757;SDS011;363;48.764;9.172;2022-09-23T00:35:46;6.03;;;5.53;;
757;SDS011;363;48.764;9.172;2022-09-23T00:38:12;7.07;;;6.03;;
757;SDS011;363;48.764;9.172;2022-09-23T00:40:44;6.00;;;5.50;;
757;SDS011;363;48.764;9.172;2022-09-23T00:43:11;6.57;;;6.00;;
757;SDS011;363;48.764;9.172;2022-09-23T00:45:39;6.07;;;5.53;;
757;SDS011;363;48.764;9.172;2022-09-23T00:48:12;7.85;;;6.35;;
757;SDS011;363;48.764;9.172;2022-09-23T00:50:41;7.78;;;7.07;;
757;SDS011;363;48.764;9.172;2022-09-23T00:53:11;6.68;;;6.07;;
757;SDS011;363;48.764;9.172;2022-09-23T00:58:17;6.07;;;5.47;;
757;SDS011;363;48.764;9.172;2022-09-23T01:00:46;6.05;;;5.47;;
757;SDS011;363;48.764;9.172;2022-09-23T01:03:12;7.30;;;6.00;;
757;SDS011;363;48.764;9.172;2022-09-23T01:05:38;6.95;;;5.55;;
757;SDS011;363;48.764;9.172;2022-09-23T01:08:06;6.35;;;5.75;;
757;SDS011;363;48.764;9.172;2022-09-23T01:13:45;6.35;;;5.85;;
757;SDS011;363;48.764;9.172;2022-09-23T01:16:43;5.93;;;5.38;;
757;SDS011;363;48.764;9.172;2022-09-23T01:22:02;6.32;;;5.35;;
757;SDS011;363;48.764;9.172;2022-09-23T01:25:13;7.15;;;5.63;;
757;SDS011;363;48.764;9.172;2022-09-23T01:30:37;5.90;;;5.30;;
757;SDS011;363;48.764;9.172;2022-09-23T01:33:28;5.13;;;4.72;;
757;SDS011;363;48.764;9.172;2022-09-23T01:36:09;5.70;;;5.20;;
757;SDS011;363;48.764;9.172;2022-09-23T01:47:01;5.97;;;5.15;;
757;SDS011;363;48.764;9.172;2022-09-23T01:49:34;5.63;;;5.10;;
757;SDS011;363;48.764;9.172;2022-09-23T01:52:19;5.32;;;4.93;;
757;SDS011;363;48.764;9.172;2022-09-23T01:54:57;6.07;;;5.47;;
757;SDS011;363;48.764;9.172;2022-09-23T01:57:42;5.55;;;5.07;;
757;SDS011;363;48.764;9.172;2022-09-23T02:00:14;5.80;;;5.20;;
757;SDS011;363;48.764;9.172;2022-09-23T02:02:46;5.22;;;4.82;;
757;SDS011;363;48.764;9.172;2022-09-23T02:05:26;5.80;;;5.30;;
757;SDS011;363;48.764;9.172;2022-09-23T02:08:07;5.45;;;4.63;;
757;SDS011;363;48.764;9.172;2022-09-23T02:10:41;5.40;;;4.90;;
757;SDS011;363;48.764;9.172;2022-09-23T02:16:32;5.78;;;5.28;;
757;SDS011;363;48.764;9.172;2022-09-23T02:21:39;5.35;;;4.85;;
757;SDS011;363;48.764;9.172;2022-09-23T02:24:09;5.90;;;4.93;;
757;SDS011;363;48.764;9.172;2022-09-23T02:26:42;5.55;;;5.07;;
757;SDS011;363;48.764;9.172;2022-09-23T02:39:42;4.80;;;4.40;;
757;SDS011;363;48.764;9.172;2022-09-23T02:42:17;5.75;;;4.75;;
757;SDS011;363;48.764;9.172;2022-09-23T02:44:47;5.65;;;5.15;;
757;SDS011;363;48.764;9.172;2022-09-23T02:47:12;5.30;;;4.87;;
757;SDS011;363;48.764;9.172;2022-09-23T02:49:38;6.22;;;5.30;;
757;SDS011;363;48.764;9.172;2022-09-23T02:52:04;4.43;;;4.07;;
757;SDS011;363;48.764;9.172;2022-09-23T02:54:31;5.80;;;5.30;;
757;SDS011;363;48.764;9.172;2022-09-23T02:56:58;5.05;;;4.65;;
757;SDS011;363;48.764;9.172;2022-09-23T02:59:26;5.70;;;5.20;;
757;SDS011;363;48.764;9.172;2022-09-23T03:07:29;5.28;;;4.30;;
757;SDS011;363;48.764;9.172;2022-09-23T03:12:47;5.38;;;4.88;;
757;SDS011;363;48.764;9.172;2022-09-23T03:23:01;5.20;;;4.80;;
757;SDS011;363;48.764;9.172;2022-09-23T03:25:30;4.95;;;4.45;;
757;SDS011;363;48.764;9.172;2022-09-23T03:28:00;6.05;;;5.32;;
757;SDS011;363;48.764;9.172;2022-09-23T03:30:27;4.97;;;4.47;;
757;SDS011;363;48.764;9.172;2022-09-23T03:32:55;6.00;;;5.07;;
757;SDS011;363;48.764;9.172;2022-09-23T03:35:24;5.25;;;4.75;;
757;SDS011;363;48.764;9.172;2022-09-23T03:37:55;5.63;;;5.13;;
757;SDS011;363;48.764;9.172;2022-09-23T03:40:30;4.88;;;4.40;;
757;SDS011;363;48.764;9.172;2022-09-23T03:42:59;5.25;;;4.75;;
757;SDS011;363;48.764;9.172;2022-09-23T03:45:28;5.32;;;4.65;;
757;SDS011;363;48.764;9.172;2022-09-23T03:47:56;5.10;;;4.50;;
757;SDS011;363;48.764;9.172;2022-09-23T03:50:22;6.30;;;5.80;;
757;SDS011;363;48.764;9.172;2022-09-23T03:52:48;5.03;;;4.63;;
757;SDS011;363;48.764;9.172;2022-09-23T03:55:14;5.60;;;5.10;;
757;SDS011;363;48.764;9.172;2022-09-23T03:57:41;6.30;;;4.90;;
757;SDS011;363;48.764;9.172;2022-09-23T04:00:07;5.27;;;4.87;;
757;SDS011;363;48.764;9.172;2022-09-23T04:02:33;6.93;;;5.13;;
757;SDS011;363;48.764;9.172;2022-09-23T04:04:59;8.60;;;4.90;;
757;SDS011;363;48.764;9.172;2022-09-23T04:07:25;5.93;;;5.33;;
757;SDS011;363;48.764;9.172;2022-09-23T04:09:51;6.00;;;5.40;;
757;SDS011;363;48.764;9.172;2022-09-23T04:12:17;5.90;;;5.40;;
757;SDS011;363;48.764;9.172;2022-09-23T04:14:43;5.10;;;4.68;;
757;SDS011;363;48.764;9.172;2022-09-23T04:17:09;4.95;;;4.47;;
757;SDS011;363;48.764;9.172;2022-09-23T04:19:35;5.50;;;5.10;;
757;SDS011;363;48.764;9.172;2022-09-23T04:22:01;5.43;;;4.93;;
757;SDS011;363;48.764;9.172;2022-09-23T04:24:27;6.20;;;5.60;;
757;SDS011;363;48.764;9.172;2022-09-23T04:26:53;7.70;;;5.50;;
757;SDS011;363;48.764;9.172;2022-09-23T04:29:19;6.20;;;5.60;;
757;SDS011;363;48.764;9.172;2022-09-23T04:31:45;5.38;;;4.93;;
757;SDS011;363;48.764;9.172;2022-09-23T04:34:11;5.40;;;4.95;;
757;SDS011;363;48.764;9.172;2022-09-23T04:36:37;5.10;;;4.60;;
757;SDS011;363;48.764;9.172;2022-09-23T04:39:02;8.60;;;6.00;;
757;SDS011;363;48.764;9.172;2022-09-23T04:41:29;5.50;;;4.90;;
757;SDS011;363;48.764;9.172;2022-09-23T04:43:55;7.53;;;5.07;;
757;SDS011;363;48.764;9.172;2022-09-23T04:46:21;5.82;;;5.25;;
757;SDS011;363;48.764;9.172;2022-09-23T04:48:47;5.35;;;4.85;;
757;SDS011;363;48.764;9.172;2022-09-23T04:51:14;5.03;;;4.60;;
757;SDS011;363;48.764;9.172;2022-09-23T04:53:42;5.32;;;4.82;;
757;SDS011;363;48.764;9.172;2022-09-23T04:56:10;6.07;;;5.47;;
757;SDS011;363;48.764;9.172;2022-09-23T04:58:40;5.80;;;5.20;;
757;SDS011;363;48.764;9.172;2022-09-23T05:01:08;5.32;;;4.93;;
757;SDS011;363;48.764;9.172;2022-09-23T05:03:35;6.30;;;5.80;;
757;SDS011;363;48.764;9.172;2022-09-23T05:06:01;6.90;;;5.68;;
757;SDS011;363;48.764;9.172;2022-09-23T05:08:27;6.13;;;5.63;;
757;SDS011;363;48.764;9.172;2022-09-23T05:10:59;7.60;;;6.20;;
757;SDS011;363;48.764;9.172;2022-09-23T05:13:26;6.35;;;5.75;;
757;SDS011;363;48.764;9.172;2022-09-23T05:16:05;6.63;;;6.03;;
757;SDS011;363;48.764;9.172;2022-09-23T05:18:35;6.30;;;5.80;;
757;SDS011;363;48.764;9.172;2022-09-23T05:21:01;9.20;;;6.40;;
757;SDS011;363;48.764;9.172;2022-09-23T05:23:29;7.28;;;5.97;;
757;SDS011;363;48.764;9.172;2022-09-23T05:26:00;6.53;;;5.93;;
757;SDS011;363;48.764;9.172;2022-09-23T05:28:35;10.38;;;9.18;;
757;SDS011;363;48.764;9.172;2022-09-23T05:31:10;7.25;;;6.28;;
757;SDS011;363;48.764;9.172;2022-09-23T05:33:41;9.77;;;8.77;;
757;SDS011;363;48.764;9.172;2022-09-23T05:36:08;8.95;;;7.93;;
757;SDS011;363;48.764;9.172;2022-09-23T05:38:34;10.95;;;9.60;;
757;SDS011;363;48.764;9.172;2022-09-23T05:41:01;9.15;;;8.25;;
757;SDS011;363;48.764;9.172;2022-09-23T05:43:28;8.77;;;7.97;;
757;SDS011;363;48.764;9.172;2022-09-23T05:46:28;8.63;;;6.18;;
757;SDS011;363;48.764;9.172;2022-09-23T05:48:51;6.95;;;5.90;;
757;SDS011;363;48.764;9.172;2022-09-23T05:51:19;8.10;;;7.30;;
757;SDS011;363;48.764;9.172;2022-09-23T05:53:46;6.70;;;6.10;;
757;SDS011;363;48.764;9.172;2022-09-23T05:56:12;8.00;;;7.20;;
757;SDS011;363;48.764;9.172;2022-09-23T05:58:40;7.05;;;6.35;;
757;SDS011;363;48.764;9.172;2022-09-23T06:01:12;8.90;;;6.07;;
757;SDS011;363;48.764;9.172;2022-09-23T06:03:45;7.00;;;6.30;;
757;SDS011;363;48.764;9.172;2022-09-23T06:06:15;10.23;;;5.93;;
757;SDS011;363;48.764;9.172;2022-09-23T06:08:43;8.88;;;6.13;;
757;SDS011;363;48.764;9.172;2022-09-23T06:11:09;6.32;;;5.80;;
757;SDS011;363;48.764;9.172;2022-09-23T06:13:36;9.50;;;6.40;;
757;SDS011;363;48.764;9.172;2022-09-23T06:16:06;8.75;;;6.22;;
757;SDS011;363;48.764;9.172;2022-09-23T06:18:34;6.88;;;6.28;;
757;SDS011;363;48.764;9.172;2022-09-23T06:21:02;7.55;;;6.32;;
757;SDS011;363;48.764;9.172;2022-09-23T06:23:28;7.05;;;6.45;;
757;SDS011;363;48.764;9.172;2022-09-23T06:25:58;7.80;;;7.20;;
757;SDS011;363;48.764;9.172;2022-09-23T06:28:27;7.28;;;6.22;;
757;SDS011;363;48.764;9.172;2022-09-23T06:30:59;7.55;;;5.78;;
757;SDS011;363;48.764;9.172;2022-09-23T06:33:27;8.68;;;5.95;;
757;SDS011;363;48.764;9.172;2022-09-23T06:35:56;7.15;;;6.45;;
757;SDS011;363;48.764;9.172;2022-09-23T06:38:23;6.28;;;5.78;;
757;SDS011;363;48.764;9.172;2022-09-23T06:40:52;6.70;;;6.13;;
757;SDS011;363;48.764;9.172;2022-09-23T06:43:19;6.60;;;5.95;;
757;SDS011;363;48.764;9.172;2022-09-23T06:45:50;6.72;;;5.90;;
757;SDS011;363;48.764;9.172;2022-09-23T06:48:17;8.00;;;6.53;;
757;SDS011;363;48.764;9.172;2022-09-23T06:50:43;10.13;;;9.20;;
757;SDS011;363;48.764;9.172;2022-09-23T06:53:09;8.17;;;7.37;;
757;SDS011;363;48.764;9.172;2022-09-23T06:55:34;7.80;;;7.10;;
757;SDS011;363;48.764;9.172;2022-09-23T06:58:00;7.10;;;6.40;;
757;SDS011;363;48.764;9.172;2022-09-23T07:00:25;6.03;;;5.53;;
757;SDS011;363;48.764;9.172;2022-09-23T07:02:51;8.57;;;7.40;;
757;SDS011;363;48.764;9.172;2022-09-23T07:05:18;8.25;;;7.55;;
757;SDS011;363;48.764;9.172;2022-09-23T07:07:46;6.50;;;5.90;;
757;SDS011;363;48.764;9.172;2022-09-23T07:10:12;12.33;;;11.20;;
757;SDS011;363;48.764;9.172;2022-09-23T07:12:39;7.93;;;7.15;;
757;SDS011;363;48.764;9.172;2022-09-23T07:15:06;6.10;;;5.50;;
757;SDS011;363;48.764;9.172;2022-09-23T07:17:32;7.00;;;6.30;;
757;SDS011;363;48.764;9.172;2022-09-23T07:19:58;6.55;;;5.80;;
757;SDS011;363;48.764;9.172;2022-09-23T07:22:25;6.20;;;5.47;;
757;SDS011;363;48.764;9.172;2022-09-23T07:24:51;5.43;;;4.93;;
757;SDS011;363;48.764;9.172;2022-09-23T07:27:23;5.53;;;5.13;;
757;SDS011;363;48.764;9.172;2022-09-23T07:29:49;5.57;;;5.17;;
757;SDS011;363;48.764;9.172;2022-09-23T07:32:16;4.83;;;4.43;;
757;SDS011;363;48.764;9.172;2022-09-23T07:34:42;4.90;;;4.47;;
757;SDS011;363;48.764;9.172;2022-09-23T07:37:08;4.60;;;4.03;;
757;SDS011;363;48.764;9.172;2022-09-23T07:39:35;5.50;;;4.40;;
757;SDS011;363;48.764;9.172;2022-09-23T07:42:00;7.03;;;6.40;;
757;SDS011;363;48.764;9.172;2022-09-23T07:44:29;7.17;;;5.83;;
757;SDS011;363;48.764;9.172;2022-09-23T07:46:56;4.73;;;4.33;;
757;SDS011;363;48.764;9.172;2022-09-23T07:49:22;5.53;;;5.07;;
757;SDS011;363;48.764;9.172;2022-09-23T07:51:48;6.77;;;4.10;;
757;SDS011;363;48.764;9.172;2022-09-23T07:54:14;5.63;;;5.13;;
757;SDS011;363;48.764;9.172;2022-09-23T07:56:40;4.40;;;4.00;;
757;SDS011;363;48.764;9.172;2022-09-23T07:59:07;5.60;;;5.10;;
757;SDS011;363;48.764;9.172;2022-09-23T08:01:40;6.03;;;4.27;;
757;SDS011;363;48.764;9.172;2022-09-23T08:04:16;4.50;;;4.10;;
757;SDS011;363;48.764;9.172;2022-09-23T08:06:47;7.60;;;4.97;;
757;SDS011;363;48.764;9.172;2022-09-23T08:09:18;5.38;;;4.90;;
757;SDS011;363;48.764;9.172;2022-09-23T08:11:45;4.55;;;4.25;;
757;SDS011;363;48.764;9.172;2022-09-23T08:14:11;5.07;;;4.53;;
757;SDS011;363;48.764;9.172;2022-09-23T08:16:39;6.78;;;4.00;;
757;SDS011;363;48.764;9.172;2022-09-23T08:19:05;18.25;;;7.88;;
757;SDS011;363;48.764;9.172;2022-09-23T08:21:32;4.80;;;4.30;;
757;SDS011;363;48.764;9.172;2022-09-23T08:23:58;5.50;;;4.30;;
757;SDS011;363;48.764;9.172;2022-09-23T08:26:23;7.63;;;6.20;;
757;SDS011;363;48.764;9.172;2022-09-23T08:28:49;5.10;;;4.33;;
757;SDS011;363;48.764;9.172;2022-09-23T08:31:19;5.28;;;4.45;;
757;SDS011;363;48.764;9.172;2022-09-23T08:33:46;5.72;;;4.65;;
757;SDS011;363;48.764;9.172;2022-09-23T08:36:11;6.80;;;4.20;;
757;SDS011;363;48.764;9.172;2022-09-23T08:38:37;5.03;;;4.50;;
757;SDS011;363;48.764;9.172;2022-09-23T08:41:04;4.57;;;4.13;;
757;SDS011;363;48.764;9.172;2022-09-23T08:43:47;5.28;;;3.88;;
757;SDS011;363;48.764;9.172;2022-09-23T08:46:17;8.75;;;4.30;;
757;SDS011;363;48.764;9.172;2022-09-23T08:48:47;7.13;;;4.03;;
757;SDS011;363;48.764;9.172;2022-09-23T08:51:14;4.15;;;3.75;;
757;SDS011;363;48.764;9.172;2022-09-23T08:53:47;4.60;;;4.05;;
757;SDS011;363;48.764;9.172;2022-09-23T08:56:17;4.37;;;4.07;;
757;SDS011;363;48.764;9.172;2022-09-23T09:01:42;4.93;;;4.25;;
757;SDS011;363;48.764;9.172;2022-09-23T09:04:27;4.60;;;4.20;;
757;SDS011;363;48.764;9.172;2022-09-23T09:09:38;7.30;;;5.80;;
757;SDS011;363;48.764;9.172;2022-09-23T09:12:15;4.90;;;4.40;;
757;SDS011;363;48.764;9.172;2022-09-23T09:14:51;4.30;;;3.90;;
757;SDS011;363;48.764;9.172;2022-09-23T09:22:54;7.03;;;4.03;;
757;SDS011;363;48.764;9.172;2022-09-23T09:27:52;4.20;;;3.80;;
757;SDS011;363;48.764;9.172;2022-09-23T09:30:19;5.20;;;3.70;;
757;SDS011;363;48.764;9.172;2022-09-23T09:33:01;5.97;;;3.53;;
757;SDS011;363;48.764;9.172;2022-09-23T09:35:33;4.25;;;3.90;;
757;SDS011;363;48.764;9.172;2022-09-23T09:38:02;9.35;;;5.90;;
757;SDS011;363;48.764;9.172;2022-09-23T09:40:29;4.00;;;3.70;;
757;SDS011;363;48.764;9.172;2022-09-23T09:42:56;4.45;;;4.05;;
757;SDS011;363;48.764;9.172;2022-09-23T09:48:19;5.70;;;3.63;;
757;SDS011;363;48.764;9.172;2022-09-23T09:50:52;4.20;;;3.90;;
757;SDS011;363;48.764;9.172;2022-09-23T09:53:24;5.43;;;4.17;;
757;SDS011;363;48.764;9.172;2022-09-23T10:01:24;3.90;;;3.50;;
757;SDS011;363;48.764;9.172;2022-09-23T10:03:55;6.07;;;3.47;;
757;SDS011;363;48.764;9.172;2022-09-23T10:06:23;3.10;;;2.90;;
757;SDS011;363;48.764;9.172;2022-09-23T10:11:29;3.20;;;3.00;;
757;SDS011;363;48.764;9.172;2022-09-23T10:14:00;4.70;;;3.70;;
757;SDS011;363;48.764;9.172;2022-09-23T10:16:30;4.00;;;3.60;;
757;SDS011;363;48.764;9.172;2022-09-23T10:18:58;3.80;;;3.50;;
757;SDS011;363;48.764;9.172;2022-09-23T10:21:35;5.07;;;3.27;;
757;SDS011;363;48.764;9.172;2022-09-23T10:24:05;4.90;;;3.63;;
757;SDS011;363;48.764;9.172;2022-09-23T10:26:33;3.60;;;3.30;;
757;SDS011;363;48.764;9.172;2022-09-23T10:34:44;4.47;;;4.17;;
757;SDS011;363;48.764;9.172;2022-09-23T10:37:13;3.70;;;3.40;;
757;SDS011;363;48.764;9.172;2022-09-23T10:39:42;3.60;;;3.03;;
757;SDS011;363;48.764;9.172;2022-09-23T10:45:26;3.40;;;3.03;;
757;SDS011;363;48.764;9.172;2022-09-23T10:56:52;4.60;;;3.80;;
757;SDS011;363;48.764;9.172;2022-09-23T10:59:27;3.63;;;3.33;;
757;SDS011;363;48.764;9.172;2022-09-23T11:02:34;4.10;;;3.70;;
757;SDS011;363;48.764;9.172;2022-09-23T11:05:17;4.83;;;3.47;;
757;SDS011;363;48.764;9.172;2022-09-23T11:08:05;4.15;;;3.75;;
757;SDS011;363;48.764;9.172;2022-09-23T11:16:23;3.83;;;3.37;;
757;SDS011;363;48.764;9.172;2022-09-23T11:27:48;4.20;;;3.20;;
757;SDS011;363;48.764;9.172;2022-09-23T11:35:52;4.10;;;3.70;;
757;SDS011;363;48.764;9.172;2022-09-23T11:38:24;3.20;;;3.00;;
757;SDS011;363;48.764;9.172;2022-09-23T11:40:57;4.57;;;4.13;;
757;SDS011;363;48.764;9.172;2022-09-23T11:43:45;4.80;;;4.30;;
757;SDS011;363;48.764;9.172;2022-09-23T11:48:57;4.88;;;3.47;;
757;SDS011;363;48.764;9.172;2022-09-23T11:51:49;3.60;;;3.30;;
757;SDS011;363;48.764;9.172;2022-09-23T11:54:28;4.20;;;3.80;;
757;SDS011;363;48.764;9.172;2022-09-23T11:57:03;5.05;;;4.55;;
757;SDS011;363;48.764;9.172;2022-09-23T11:59:44;4.15;;;3.85;;
757;SDS011;363;48.764;9.172;2022-09-23T12:05:08;3.95;;;3.60;;
757;SDS011;363;48.764;9.172;2022-09-23T12:07:51;4.10;;;3.67;;
757;SDS011;363;48.764;9.172;2022-09-23T12:10:22;6.53;;;4.05;;
757;SDS011;363;48.764;9.172;2022-09-23T12:13:14;4.10;;;3.45;;
757;SDS011;363;48.764;9.172;2022-09-23T12:19:02;5.70;;;4.55;;
757;SDS011;363;48.764;9.172;2022-09-23T12:27:03;5.53;;;4.18;;
757;SDS011;363;48.764;9.172;2022-09-23T12:29:35;4.22;;;3.83;;
757;SDS011;363;48.764;9.172;2022-09-23T12:32:03;3.88;;;3.58;;
757;SDS011;363;48.764;9.172;2022-09-23T12:34:40;4.00;;;3.70;;
757;SDS011;363;48.764;9.172;2022-09-23T12:37:12;4.80;;;4.00;;
757;SDS011;363;48.764;9.172;2022-09-23T12:39:46;4.70;;;4.40;;
757;SDS011;363;48.764;9.172;2022-09-23T12:42:14;4.13;;;3.80;;
757;SDS011;363;48.764;9.172;2022-09-23T12:44:43;5.00;;;4.50;;
757;SDS011;363;48.764;9.172;2022-09-23T12:49:45;4.43;;;3.97;;
757;SDS011;363;48.764;9.172;2022-09-23T12:52:20;4.88;;;4.15;;
757;SDS011;363;48.764;9.172;2022-09-23T12:57:43;4.60;;;3.97;;
757;SDS011;363;48.764;9.172;2022-09-23T13:00:13;7.17;;;6.57;;
757;SDS011;363;48.764;9.172;2022-09-23T13:05:32;5.07;;;4.57;;
757;SDS011;363;48.764;9.172;2022-09-23T13:08:43;6.00;;;5.45;;
757;SDS011;363;48.764;9.172;2022-09-23T13:11:17;5.00;;;4.50;;
757;SDS011;363;48.764;9.172;2022-09-23T13:13:52;5.15;;;4.75;;
757;SDS011;363;48.764;9.172;2022-09-23T13:16:24;5.50;;;5.00;;
757;SDS011;363;48.764;9.172;2022-09-23T13:18:57;6.22;;;5.63;;
757;SDS011;363;48.764;9.172;2022-09-23T13:26:55;7.07;;;5.80;;
757;SDS011;363;48.764;9.172;2022-09-23T13:29:31;5.65;;;5.25;;
757;SDS011;363;48.764;9.172;2022-09-23T13:32:19;5.20;;;4.80;;
757;SDS011;363;48.764;9.172;2022-09-23T13:34:53;6.20;;;5.60;;
757;SDS011;363;48.764;9.172;2022-09-23T13:37:23;6.10;;;5.57;;
757;SDS011;363;48.764;9.172;2022-09-23T13:42:55;9.23;;;7.32;;
757;SDS011;363;48.764;9.172;2022-09-23T13:45:24;6.07;;;5.57;;
757;SDS011;363;48.764;9.172;2022-09-23T13:47:52;7.57;;;6.80;;
757;SDS011;363;48.764;9.172;2022-09-23T13:50:24;6.05;;;5.63;;
757;SDS011;363;48.764;9.172;2022-09-23T13:52:51;7.10;;;6.60;;
757;SDS011;363;48.764;9.172;2022-09-23T13:55:27;6.38;;;5.88;;
757;SDS011;363;48.764;9.172;2022-09-23T13:58:00;6.40;;;4.40;;
757;SDS011;363;48.764;9.172;2022-09-23T14:00:31;8.65;;;5.53;;
757;SDS011;363;48.764;9.172;2022-09-23T14:02:59;5.53;;;5.03;;
757;SDS011;363;48.764;9.172;2022-09-23T14:05:25;5.15;;;4.75;;
757;SDS011;363;48.764;9.172;2022-09-23T14:07:57;7.80;;;5.25;;
757;SDS011;363;48.764;9.172;2022-09-23T14:10:23;6.20;;;5.20;;
757;SDS011;363;48.764;9.172;2022-09-23T14:12:51;8.07;;;4.70;;
757;SDS011;363;48.764;9.172;2022-09-23T14:15:19;6.32;;;4.57;;
757;SDS011;363;48.764;9.172;2022-09-23T14:17:46;5.18;;;4.63;;
757;SDS011;363;48.764;9.172;2022-09-23T14:20:14;5.20;;;4.80;;
757;SDS011;363;48.764;9.172;2022-09-23T14:22:41;7.38;;;4.90;;
757;SDS011;363;48.764;9.172;2022-09-23T14:25:14;6.60;;;5.65;;
757;SDS011;363;48.764;9.172;2022-09-23T14:27:41;7.20;;;5.40;;
757;SDS011;363;48.764;9.172;2022-09-23T14:30:15;4.85;;;4.18;;
757;SDS011;363;48.764;9.172;2022-09-23T14:32:44;5.63;;;4.82;;
757;SDS011;363;48.764;9.172;2022-09-23T14:35:20;4.95;;;4.55;;
757;SDS011;363;48.764;9.172;2022-09-23T14:37:53;6.78;;;4.30;;
757;SDS011;363;48.764;9.172;2022-09-23T14:40:51;5.50;;;4.90;;
757;SDS011;363;48.764;9.172;2022-09-23T14:43:38;3.90;;;3.60;;
757;SDS011;363;48.764;9.172;2022-09-23T14:46:04;5.60;;;5.10;;
757;SDS011;363;48.764;9.172;2022-09-23T14:48:33;5.20;;;4.80;;
757;SDS011;363;48.764;9.172;2022-09-23T14:51:00;6.10;;;5.50;;
757;SDS011;363;48.764;9.172;2022-09-23T14:53:36;6.25;;;4.80;;
757;SDS011;363;48.764;9.172;2022-09-23T14:58:39;5.32;;;4.93;;
757;SDS011;363;48.764;9.172;2022-09-23T15:01:22;4.95;;;4.45;;
757;SDS011;363;48.764;9.172;2022-09-23T15:03:54;6.75;;;4.97;;
757;SDS011;363;48.764;9.172;2022-09-23T15:06:21;5.00;;;4.50;;
757;SDS011;363;48.764;9.172;2022-09-23T15:08:47;4.05;;;3.63;;
757;SDS011;363;48.764;9.172;2022-09-23T15:11:14;3.40;;;3.10;;
757;SDS011;363;48.764;9.172;2022-09-23T15:13:40;4.80;;;4.40;;
757;SDS011;363;48.764;9.172;2022-09-23T15:16:10;5.45;;;4.95;;
757;SDS011;363;48.764;9.172;2022-09-23T15:18:38;6.28;;;5.00;;
757;SDS011;363;48.764;9.172;2022-09-23T15:26:10;5.65;;;4.72;;
757;SDS011;363;48.764;9.172;2022-09-23T15:28:39;4.82;;;4.22;;
757;SDS011;363;48.764;9.172;2022-09-23T15:31:08;4.60;;;4.20;;
757;SDS011;363;48.764;9.172;2022-09-23T15:33:40;7.07;;;4.80;;
757;SDS011;363;48.764;9.172;2022-09-23T15:36:09;7.22;;;5.28;;
757;SDS011;363;48.764;9.172;2022-09-23T15:38:41;4.70;;;4.30;;
757;SDS011;363;48.764;9.172;2022-09-23T15:41:07;5.55;;;4.28;;
757;SDS011;363;48.764;9.172;2022-09-23T15:43:33;4.50;;;4.20;;
757;SDS011;363;48.764;9.172;2022-09-23T15:46:02;5.60;;;4.87;;
757;SDS011;363;48.764;9.172;2022-09-23T15:48:35;4.95;;;4.45;;
757;SDS011;363;48.764;9.172;2022-09-23T15:51:04;5.25;;;4.85;;
757;SDS011;363;48.764;9.172;2022-09-23T15:53:32;5.30;;;4.10;;
757;SDS011;363;48.764;9.172;2022-09-23T15:55:57;6.03;;;5.40;;
757;SDS011;363;48.764;9.172;2022-09-23T15:58:24;5.70;;;5.20;;
757;SDS011;363;48.764;9.172;2022-09-23T16:00:50;5.03;;;4.63;;
757;SDS011;363;48.764;9.172;2022-09-23T16:03:17;4.25;;;3.80;;
757;SDS011;363;48.764;9.172;2022-09-23T16:05:47;4.15;;;3.85;;
757;SDS011;363;48.764;9.172;2022-09-23T16:08:14;4.43;;;4.10;;
757;SDS011;363;48.764;9.172;2022-09-23T16:10:43;4.40;;;3.97;;
757;SDS011;363;48.764;9.172;2022-09-23T16:13:12;4.03;;;3.65;;
757;SDS011;363;48.764;9.172;2022-09-23T16:15:38;4.50;;;4.20;;
757;SDS011;363;48.764;9.172;2022-09-23T16:18:05;5.07;;;4.60;;
757;SDS011;363;48.764;9.172;2022-09-23T16:20:33;5.93;;;5.32;;
757;SDS011;363;48.764;9.172;2022-09-23T16:23:33;6.10;;;4.22;;
757;SDS011;363;48.764;9.172;2022-09-23T16:26:00;5.63;;;4.88;;
757;SDS011;363;48.764;9.172;2022-09-23T16:28:28;5.45;;;4.22;;
757;SDS011;363;48.764;9.172;2022-09-23T16:30:53;6.90;;;4.37;;
757;SDS011;363;48.764;9.172;2022-09-23T16:33:19;8.87;;;7.97;;
757;SDS011;363;48.764;9.172;2022-09-23T16:35:45;6.00;;;5.50;;
757;SDS011;363;48.764;9.172;2022-09-23T16:38:10;4.90;;;4.50;;
757;SDS011;363;48.764;9.172;2022-09-23T16:40:36;5.60;;;5.10;;
757;SDS011;363;48.764;9.172;2022-09-23T16:43:01;5.60;;;5.20;;
757;SDS011;363;48.764;9.172;2022-09-23T16:45:29;4.95;;;4.55;;
757;SDS011;363;48.764;9.172;2022-09-23T16:47:55;4.83;;;4.43;;
757;SDS011;363;48.764;9.172;2022-09-23T16:50:21;5.63;;;4.83;;
757;SDS011;363;48.764;9.172;2022-09-23T16:52:49;5.65;;;5.15;;
757;SDS011;363;48.764;9.172;2022-09-23T16:55:18;5.00;;;4.60;;
757;SDS011;363;48.764;9.172;2022-09-23T16:57:44;5.13;;;4.73;;
757;SDS011;363;48.764;9.172;2022-09-23T17:00:11;5.50;;;4.67;;
757;SDS011;363;48.764;9.172;2022-09-23T17:02:58;5.05;;;4.65;;
757;SDS011;363;48.764;9.172;2022-09-23T17:05:43;10.05;;;8.95;;
757;SDS011;363;48.764;9.172;2022-09-23T17:08:12;5.90;;;5.40;;
757;SDS011;363;48.764;9.172;2022-09-23T17:10:39;5.78;;;5.28;;
757;SDS011;363;48.764;9.172;2022-09-23T17:13:06;9.18;;;6.97;;
757;SDS011;363;48.764;9.172;2022-09-23T17:15:35;8.88;;;7.60;;
757;SDS011;363;48.764;9.172;2022-09-23T17:18:05;7.40;;;6.70;;
757;SDS011;363;48.764;9.172;2022-09-23T17:20:31;7.03;;;6.53;;
757;SDS011;363;48.764;9.172;2022-09-23T17:22:57;7.57;;;6.83;;
757;SDS011;363;48.764;9.172;2022-09-23T17:25:23;7.63;;;6.93;;
757;SDS011;363;48.764;9.172;2022-09-23T17:27:48;7.60;;;6.90;;
757;SDS011;363;48.764;9.172;2022-09-23T17:30:15;7.32;;;6.55;;
757;SDS011;363;48.764;9.172;2022-09-23T17:32:40;7.70;;;7.00;;
757;SDS011;363;48.764;9.172;2022-09-23T17:35:06;7.77;;;7.10;;
757;SDS011;363;48.764;9.172;2022-09-23T17:37:34;8.35;;;7.22;;
757;SDS011;363;48.764;9.172;2022-09-23T17:40:00;8.73;;;7.90;;
757;SDS011;363;48.764;9.172;2022-09-23T17:42:26;10.37;;;6.87;;
757;SDS011;363;48.764;9.172;2022-09-23T17:44:52;8.52;;;6.93;;
757;SDS011;363;48.764;9.172;2022-09-23T17:47:22;7.03;;;5.53;;
757;SDS011;363;48.764;9.172;2022-09-23T17:49:47;6.83;;;6.13;;
757;SDS011;363;48.764;9.172;2022-09-23T17:52:14;9.35;;;7.45;;
757;SDS011;363;48.764;9.172;2022-09-23T17:54:40;6.30;;;5.70;;
757;SDS011;363;48.764;9.172;2022-09-23T17:57:05;10.10;;;7.90;;
757;SDS011;363;48.764;9.172;2022-09-23T17:59:31;7.57;;;6.30;;
757;SDS011;363;48.764;9.172;2022-09-23T18:01:57;6.73;;;6.10;;
757;SDS011;363;48.764;9.172;2022-09-23T18:04:22;17.97;;;6.10;;
757;SDS011;363;48.764;9.172;2022-09-23T18:06:48;8.30;;;6.10;;
757;SDS011;363;48.764;9.172;2022-09-23T18:09:13;6.83;;;6.10;;
757;SDS011;363;48.764;9.172;2022-09-23T18:11:40;7.60;;;6.43;;
757;SDS011;363;48.764;9.172;2022-09-23T18:14:15;10.38;;;8.00;;
757;SDS011;363;48.764;9.172;2022-09-23T18:16:43;7.15;;;6.50;;
757;SDS011;363;48.764;9.172;2022-09-23T18:19:11;8.13;;;7.35;;
757;SDS011;363;48.764;9.172;2022-09-23T18:21:39;7.30;;;6.45;;
757;SDS011;363;48.764;9.172;2022-09-23T18:24:07;6.95;;;6.25;;
757;SDS011;363;48.764;9.172;2022-09-23T18:26:34;8.60;;;6.00;;
757;SDS011;363;48.764;9.172;2022-09-23T18:28:59;7.45;;;6.75;;
757;SDS011;363;48.764;9.172;2022-09-23T18:31:26;7.83;;;6.67;;
757;SDS011;363;48.764;9.172;2022-09-23T18:33:53;9.15;;;7.45;;
757;SDS011;363;48.764;9.172;2022-09-23T18:36:20;8.20;;;7.35;;